createdAt,value
2018-11-13T00:00:11.830Z,31.64
2018-11-13T00:01:11.801Z,31.55
2018-11-13T00:02:11.512Z,31.93
2018-11-13T00:03:11.514Z,31.74
2018-11-13T00:04:11.772Z,31.93
2018-11-13T00:05:11.470Z,31.93
2018-11-13T00:06:11.708Z,31.84
2018-11-13T00:07:11.700Z,32.03
2018-11-13T00:08:11.691Z,32.12
2018-11-13T00:09:11.678Z,32.12
2018-11-13T00:10:11.854Z,32.32
2018-11-13T00:11:11.684Z,32.5
2018-11-13T00:12:11.345Z,32.5
2018-11-13T00:13:11.596Z,32.4
2018-11-13T00:14:11.578Z,32.4
2018-11-13T00:15:11.569Z,32.21
2018-11-13T00:16:11.546Z,32.12
2018-11-13T00:17:11.530Z,32.03
2018-11-13T00:18:11.520Z,31.93
2018-11-13T00:19:11.496Z,31.45
2018-11-13T00:20:11.271Z,31.74
2018-11-13T00:21:11.464Z,31.84
2018-11-13T00:22:11.182Z,31.74
2018-11-13T00:23:11.168Z,31.64
2018-11-13T00:24:11.912Z,31.55
2018-11-13T00:25:11.137Z,31.55
2018-11-13T00:26:11.389Z,31.55
2018-11-13T00:27:11.100Z,31.36
2018-11-13T00:28:11.091Z,31.26
2018-11-13T00:29:11.067Z,31.16
2018-11-13T00:30:11.320Z,31.07
2018-11-13T00:31:11.350Z,31.26
2018-11-13T00:32:11.290Z,31.07
2018-11-13T00:33:11.265Z,30.6
2018-11-13T00:34:11.250Z,30.98
2018-11-13T00:35:11.238Z,30.5
2018-11-13T00:36:11.218Z,30.69
2018-11-13T00:37:11.205Z,30.5
2018-11-13T00:38:11.183Z,30.6
2018-11-13T00:39:10.957Z,30.4
2018-11-13T00:40:10.892Z,30.31
2018-11-13T00:41:10.876Z,30.4
2018-11-13T00:42:11.129Z,30.21
2018-11-13T00:43:10.839Z,30.5
2018-11-13T00:44:11.096Z,30.31
2018-11-13T00:45:11.133Z,30.21
2018-11-13T00:46:10.794Z,30.31
2018-11-13T00:47:10.773Z,30.02
2018-11-13T00:48:10.777Z,29.83
2018-11-13T00:49:11.009Z,30.02
2018-11-13T00:50:10.991Z,29.83
2018-11-13T00:51:10.971Z,30.02
2018-11-13T00:52:10.959Z,30.02
2018-11-13T00:53:10.966Z,30.31
2018-11-13T00:54:11.127Z,29.74
2018-11-13T00:55:11.034Z,30.12
2018-11-13T00:56:10.626Z,30.21
2018-11-13T00:57:10.895Z,30.5
2018-11-13T00:58:10.602Z,30.79
2018-11-13T00:59:10.585Z,31.07
2018-11-13T01:00:10.919Z,30.69
2018-11-13T01:01:10.547Z,31.26
2018-11-13T01:02:11.256Z,31.36
2018-11-13T01:03:10.783Z,31.64
2018-11-13T01:04:10.759Z,31.74
2018-11-13T01:05:10.559Z,31.93
2018-11-13T01:06:10.726Z,31.93
2018-11-13T01:07:10.444Z,32.03
2018-11-13T01:08:10.695Z,31.84
2018-11-13T01:09:10.677Z,32.03
2018-11-13T01:10:10.393Z,31.84
2018-11-13T01:11:10.644Z,32.03
2018-11-13T01:12:10.629Z,32.12
2018-11-13T01:13:10.619Z,32.31
2018-11-13T01:14:10.331Z,32.21
2018-11-13T01:15:11.475Z,32.21
2018-11-13T01:16:10.606Z,32.5
2018-11-13T01:17:10.290Z,32.5
2018-11-13T01:18:10.526Z,32.69
2018-11-13T01:19:10.528Z,32.6
2018-11-13T01:20:10.495Z,32.5
2018-11-13T01:21:10.213Z,32.6
2018-11-13T01:22:10.463Z,32.69
2018-11-13T01:23:10.183Z,32.4
2018-11-13T01:24:10.431Z,32.4
2018-11-13T01:25:10.152Z,32.6
2018-11-13T01:26:10.398Z,32.5
2018-11-13T01:27:10.116Z,32.31
2018-11-13T01:28:10.389Z,32.21
2018-11-13T01:29:10.346Z,32.5
2018-11-13T01:30:10.330Z,32.21
2018-11-13T01:31:10.363Z,32.03
2018-11-13T01:32:10.298Z,32.4
2018-11-13T01:33:10.277Z,32.21
2018-11-13T01:34:10.263Z,32.4
2018-11-13T01:35:10.165Z,32.5
2018-11-13T01:36:10.238Z,32.12
2018-11-13T01:37:10.216Z,32.21
2018-11-13T01:38:09.957Z,32.03
2018-11-13T01:39:10.185Z,32.31
2018-11-13T01:40:09.899Z,32.69
2018-11-13T01:41:10.150Z,32.6
2018-11-13T01:42:10.130Z,32.4
2018-11-13T01:43:09.860Z,32.79
2018-11-13T01:44:10.101Z,32.98
2018-11-13T01:45:10.088Z,33.17
2018-11-13T01:46:09.802Z,33.17
2018-11-13T01:47:10.048Z,33.74
2018-11-13T01:48:10.949Z,33.55
2018-11-13T01:49:10.022Z,33.45
2018-11-13T01:50:09.735Z,33.64
2018-11-13T01:51:09.718Z,33.64
2018-11-13T01:52:09.971Z,33.74
2018-11-13T01:53:09.958Z,34.03
2018-11-13T01:54:09.974Z,34.12
2018-11-13T01:55:09.651Z,34.12
2018-11-13T01:56:09.638Z,34.12
2018-11-13T01:57:09.661Z,34.22
2018-11-13T01:58:09.869Z,34.12
2018-11-13T01:59:09.597Z,34.3
2018-11-13T02:00:09.835Z,34.01
2018-11-13T02:01:09.816Z,34.2
2018-11-13T02:02:09.539Z,34.11
2018-11-13T02:03:09.784Z,33.91
2018-11-13T02:04:09.502Z,33.82
2018-11-13T02:05:09.486Z,33.82
2018-11-13T02:06:09.741Z,33.82
2018-11-13T02:07:09.456Z,33.53
2018-11-13T02:08:09.565Z,34.03
2018-11-13T02:09:09.418Z,34.5
2018-11-13T02:10:09.672Z,34.41
2018-11-13T02:11:09.656Z,34.77
2018-11-13T02:12:09.655Z,35.06
2018-11-13T02:13:09.618Z,35.46
2018-11-13T02:14:09.605Z,36.03
2018-11-13T02:15:09.327Z,36.41
2018-11-13T02:16:09.307Z,36.41
2018-11-13T02:17:09.562Z,36.41
2018-11-13T02:18:09.543Z,36.32
2018-11-13T02:19:09.519Z,36.6
2018-11-13T02:20:09.240Z,36.68
2018-11-13T02:21:09.485Z,36.58
2018-11-13T02:22:09.469Z,36.77
2018-11-13T02:23:09.455Z,37.15
2018-11-13T02:24:09.440Z,36.98
2018-11-13T02:25:09.427Z,37.25
2018-11-13T02:26:09.401Z,37.54
2018-11-13T02:27:09.124Z,37.34
2018-11-13T02:28:09.104Z,37.82
2018-11-13T02:29:09.353Z,37.73
2018-11-13T02:30:09.090Z,37.92
2018-11-13T02:31:09.057Z,38.29
2018-11-13T02:32:09.094Z,38.39
2018-11-13T02:33:09.024Z,38.68
2018-11-13T02:34:09.270Z,38.89
2018-11-13T02:35:09.320Z,39.17
2018-11-13T02:36:09.252Z,39.34
2018-11-13T02:37:09.222Z,39.27
2018-11-13T02:38:09.206Z,39.53
2018-11-13T02:39:09.190Z,39.25
2018-11-13T02:40:08.909Z,39.34
2018-11-13T02:41:08.890Z,39.34
2018-11-13T02:42:08.875Z,39.34
2018-11-13T02:43:09.119Z,39.53
2018-11-13T02:44:09.112Z,39.34
2018-11-13T02:45:09.085Z,39.63
2018-11-13T02:46:09.070Z,39.53
2018-11-13T02:47:08.787Z,39.73
2018-11-13T02:48:09.035Z,39.73
2018-11-13T02:49:08.765Z,40.2
2018-11-13T02:50:09.024Z,40.2
2018-11-13T02:51:08.722Z,40.3
2018-11-13T02:52:08.967Z,40.39
2018-11-13T02:53:08.954Z,41.06
2018-11-13T02:54:09.134Z,41.16
2018-11-13T02:55:08.917Z,41.44
2018-11-13T02:56:08.903Z,41.44
2018-11-13T02:57:08.645Z,42.11
2018-11-13T02:58:08.601Z,43.08
2018-11-13T02:59:08.848Z,43.46
2018-11-13T03:00:08.873Z,44.42
2018-11-13T03:01:08.813Z,44.99
2018-11-13T03:02:08.805Z,45.18
2018-11-13T03:03:08.785Z,45.94
2018-11-13T03:04:08.503Z,46.13
2018-11-13T03:05:08.747Z,46.13
2018-11-13T03:06:08.469Z,46.7
2018-11-13T03:07:08.454Z,46.42
2018-11-13T03:08:08.432Z,47.08
2018-11-13T03:09:08.681Z,47.18
2018-11-13T03:10:08.403Z,47.66
2018-11-13T03:11:08.382Z,48.23
2018-11-13T03:12:08.634Z,48.23
2018-11-13T03:13:08.355Z,48.42
2018-11-13T03:14:08.335Z,47.94
2018-11-13T03:15:08.580Z,48.42
2018-11-13T03:16:08.571Z,48.52
2018-11-13T03:17:08.280Z,48.61
2018-11-13T03:18:08.534Z,48.9
2018-11-13T03:19:08.250Z,49.37
2018-11-13T03:20:08.236Z,49.66
2018-11-13T03:21:08.218Z,49.37
2018-11-13T03:22:08.460Z,49.37
2018-11-13T03:23:08.451Z,49.56
2018-11-13T03:24:08.438Z,48.61
2018-11-13T03:25:08.413Z,48.9
2018-11-13T03:26:08.393Z,48.58
2018-11-13T03:27:08.380Z,48.52
2018-11-13T03:28:08.359Z,48.52
2018-11-13T03:29:08.077Z,48.42
2018-11-13T03:30:08.079Z,48.52
2018-11-13T03:31:08.635Z,48.61
2018-11-13T03:32:08.299Z,48.11
2018-11-13T03:33:08.303Z,47.82
2018-11-13T03:34:07.994Z,48.04
2018-11-13T03:35:07.980Z,47.75
2018-11-13T03:36:07.962Z,47.85
2018-11-13T03:37:07.944Z,47.44
2018-11-13T03:38:08.202Z,47.37
2018-11-13T03:39:07.974Z,47.54
2018-11-13T03:40:07.897Z,46.87
2018-11-13T03:41:08.152Z,46.97
2018-11-13T03:42:07.862Z,47.25
2018-11-13T03:43:07.842Z,46.61
2018-11-13T03:44:07.828Z,46.39
2018-11-13T03:45:08.076Z,46.39
2018-11-13T03:46:07.791Z,46.49
2018-11-13T03:47:07.778Z,46.2
2018-11-13T03:48:07.759Z,45.94
2018-11-13T03:49:07.744Z,46.11
2018-11-13T03:50:07.987Z,45.73
2018-11-13T03:51:07.974Z,45.73
2018-11-13T03:52:07.954Z,45.44
2018-11-13T03:53:07.675Z,45.73
2018-11-13T03:54:07.937Z,45.44
2018-11-13T03:55:07.905Z,45.06
2018-11-13T03:56:07.892Z,44.87
2018-11-13T03:57:07.873Z,44.78
2018-11-13T03:58:07.853Z,44.87
2018-11-13T03:59:07.574Z,44.87
2018-11-13T04:00:07.823Z,44.59
2018-11-13T04:01:07.800Z,44.87
2018-11-13T04:02:07.522Z,44.87
2018-11-13T04:03:07.775Z,44.99
2018-11-13T04:04:07.758Z,44.2
2018-11-13T04:05:07.475Z,44.2
2018-11-13T04:06:07.716Z,43.94
2018-11-13T04:07:07.704Z,44.11
2018-11-13T04:08:07.686Z,43.82
2018-11-13T04:09:07.404Z,43.44
2018-11-13T04:10:07.656Z,43.06
2018-11-13T04:11:07.399Z,43.16
2018-11-13T04:12:07.623Z,42.99
2018-11-13T04:13:07.334Z,42.49
2018-11-13T04:14:07.587Z,42.41
2018-11-13T04:15:07.577Z,42.13
2018-11-13T04:16:07.569Z,42.32
2018-11-13T04:17:07.267Z,42.13
2018-11-13T04:18:07.519Z,42.13
2018-11-13T04:19:07.502Z,41.75
2018-11-13T04:20:07.481Z,41.84
2018-11-13T04:21:07.467Z,41.75
2018-11-13T04:22:07.449Z,41.56
2018-11-13T04:23:07.431Z,41.75
2018-11-13T04:24:07.415Z,42.22
2018-11-13T04:25:07.413Z,41.84
2018-11-13T04:26:07.414Z,42.03
2018-11-13T04:27:07.372Z,41.94
2018-11-13T04:28:07.087Z,42.03
2018-11-13T04:29:07.337Z,42.03
2018-11-13T04:30:07.058Z,42.03
2018-11-13T04:31:07.031Z,41.65
2018-11-13T04:32:07.029Z,41.36
2018-11-13T04:33:07.259Z,41.27
2018-11-13T04:34:07.248Z,41.08
2018-11-13T04:35:07.244Z,41.17
2018-11-13T04:36:07.220Z,41.08
2018-11-13T04:37:07.205Z,41.27
2018-11-13T04:38:07.182Z,41.17
2018-11-13T04:39:07.202Z,41.75
2018-11-13T04:40:06.877Z,42.13
2018-11-13T04:41:07.126Z,42.32
2018-11-13T04:42:07.130Z,43.27
2018-11-13T04:43:06.826Z,43.56
2018-11-13T04:44:07.076Z,44.23
2018-11-13T04:45:07.057Z,44.04
2018-11-13T04:46:06.777Z,44.04
2018-11-13T04:47:07.030Z,44.13
2018-11-13T04:48:06.746Z,44.42
2018-11-13T04:49:07.003Z,44.32
2018-11-13T04:50:06.971Z,44.42
2018-11-13T04:51:06.697Z,44.6
2018-11-13T04:52:06.675Z,44.8
2018-11-13T04:53:06.928Z,45.18
2018-11-13T04:54:07.131Z,45.56
2018-11-13T04:55:06.889Z,45.56
2018-11-13T04:56:06.870Z,46.13
2018-11-13T04:57:06.588Z,46.8
2018-11-13T04:58:06.840Z,47.18
2018-11-13T04:59:06.564Z,47.66
2018-11-13T05:00:06.804Z,47.94
2018-11-13T05:01:06.519Z,48.04
2018-11-13T05:02:06.504Z,48.32
2018-11-13T05:03:07.044Z,48.61
2018-11-13T05:04:06.497Z,48.23
2018-11-13T05:05:06.469Z,48.52
2018-11-13T05:06:06.701Z,48.52
2018-11-13T05:07:06.684Z,48.42
2018-11-13T05:08:06.403Z,48.71
2018-11-13T05:09:06.852Z,48.52
2018-11-13T05:10:06.412Z,48.71
2018-11-13T05:11:06.352Z,48.9
2018-11-13T05:12:06.606Z,48.71
2018-11-13T05:13:06.316Z,48.71
2018-11-13T05:14:06.564Z,48.8
2018-11-13T05:15:06.291Z,49.56
2018-11-13T05:16:06.533Z,50.32
2018-11-13T05:17:06.514Z,50.42
2018-11-13T05:18:06.232Z,51.28
2018-11-13T05:19:06.483Z,51.18
2018-11-13T05:20:06.219Z,51.09
2018-11-13T05:21:06.195Z,52.04
2018-11-13T05:22:06.427Z,51.95
2018-11-13T05:23:06.605Z,51.85
2018-11-13T05:24:06.134Z,53
2018-11-13T05:25:06.113Z,55
2018-11-13T05:26:06.364Z,56.9
2018-11-13T05:27:06.356Z,57.57
2018-11-13T05:28:06.326Z,57.86
2018-11-13T05:29:06.309Z,59.41
2018-11-13T05:30:06.060Z,60.27
2018-11-13T05:31:06.280Z,60.46
2018-11-13T05:32:06.259Z,60.84
2018-11-13T05:33:05.976Z,62.37
2018-11-13T05:34:06.287Z,63.13
2018-11-13T05:35:06.214Z,63.6
2018-11-13T05:36:05.927Z,63.99
2018-11-13T05:37:06.211Z,63.99
2018-11-13T05:38:06.156Z,64.09
2018-11-13T05:39:06.188Z,65.33
2018-11-13T05:40:05.859Z,65.61
2018-11-13T05:41:05.847Z,66.75
2018-11-13T05:42:05.823Z,66.47
2018-11-13T05:43:05.809Z,67.23
2018-11-13T05:44:05.789Z,67.8
2018-11-13T05:45:05.774Z,68.18
2018-11-13T05:46:05.761Z,67.71
2018-11-13T05:47:06.055Z,67.71
2018-11-13T05:48:05.720Z,67.9
2018-11-13T05:49:05.970Z,68.34
2018-11-13T05:50:05.690Z,67.68
2018-11-13T05:51:05.937Z,67.2
2018-11-13T05:52:05.656Z,66.24
2018-11-13T05:53:05.913Z,66.24
2018-11-13T05:54:05.886Z,66.34
2018-11-13T05:55:05.869Z,66.72
2018-11-13T05:56:05.586Z,66.53
2018-11-13T05:57:05.570Z,67.29
2018-11-13T05:58:05.821Z,67.68
2018-11-13T05:59:05.804Z,67
2018-11-13T06:00:05.516Z,68.24
2018-11-13T06:01:05.503Z,68.24
2018-11-13T06:02:05.483Z,68.05
2018-11-13T06:03:05.735Z,67.77
2018-11-13T06:04:05.721Z,68.34
2018-11-13T06:05:05.706Z,68.82
2018-11-13T06:06:05.686Z,69.01
2018-11-13T06:07:05.403Z,69.58
2018-11-13T06:08:05.383Z,69.68
2018-11-13T06:09:05.627Z,70.25
2018-11-13T06:10:05.349Z,70.06
2018-11-13T06:11:05.626Z,69.96
2018-11-13T06:12:05.583Z,69.87
2018-11-13T06:13:05.567Z,70.34
2018-11-13T06:14:05.353Z,69.96
2018-11-13T06:15:05.264Z,70.15
2018-11-13T06:16:05.539Z,69.48
2018-11-13T06:17:05.230Z,70.25
2018-11-13T06:18:05.586Z,70.53
2018-11-13T06:19:05.460Z,70.25
2018-11-13T06:20:05.197Z,70.44
2018-11-13T06:21:05.164Z,69.58
2018-11-13T06:22:05.409Z,69.68
2018-11-13T06:23:05.158Z,70.15
2018-11-13T06:24:05.374Z,69.77
2018-11-13T06:25:05.358Z,69.77
2018-11-13T06:26:05.339Z,69.68
2018-11-13T06:27:05.325Z,69.68
2018-11-13T06:28:05.040Z,69.96
2018-11-13T06:29:05.287Z,69.68
2018-11-13T06:30:05.276Z,69.29
2018-11-13T06:31:04.989Z,69.58
2018-11-13T06:32:05.237Z,69.48
2018-11-13T06:33:04.957Z,69.2
2018-11-13T06:34:05.204Z,68.53
2018-11-13T06:35:04.922Z,68.72
2018-11-13T06:36:05.181Z,68.53
2018-11-13T06:37:04.886Z,67.86
2018-11-13T06:38:05.139Z,68.05
2018-11-13T06:39:04.856Z,67.96
2018-11-13T06:40:05.103Z,68.15
2018-11-13T06:41:04.824Z,68.24
2018-11-13T06:42:04.798Z,67
2018-11-13T06:43:04.792Z,67.39
2018-11-13T06:44:04.765Z,67.39
2018-11-13T06:45:05.073Z,67.29
2018-11-13T06:46:04.996Z,66.63
2018-11-13T06:47:04.984Z,66.72
2018-11-13T06:48:04.960Z,66.44
2018-11-13T06:49:05.095Z,66.53
2018-11-13T06:50:04.929Z,66.72
2018-11-13T06:51:04.907Z,67.29
2018-11-13T06:52:04.932Z,67.2
2018-11-13T06:53:04.901Z,67.58
2018-11-13T06:54:04.801Z,68.15
2018-11-13T06:55:04.842Z,68.15
2018-11-13T06:56:04.559Z,68.05
2018-11-13T06:57:04.806Z,68.63
2018-11-13T06:58:04.792Z,68.34
2018-11-13T06:59:04.508Z,68.63
2018-11-13T07:00:04.493Z,69.01
2018-11-13T07:01:04.736Z,70.25
2018-11-13T07:02:04.738Z,70.82
2018-11-13T07:03:04.443Z,70.72
2018-11-13T07:04:04.780Z,70.82
2018-11-13T07:05:04.504Z,71.58
2018-11-13T07:06:04.389Z,71.48
2018-11-13T07:07:04.633Z,70.92
2018-11-13T07:08:04.618Z,70.63
2018-11-13T07:09:04.335Z,70.06
2018-11-13T07:10:04.322Z,69.58
2018-11-13T07:11:04.335Z,70.15
2018-11-13T07:12:04.572Z,70.25
2018-11-13T07:13:04.535Z,70.06
2018-11-13T07:14:04.513Z,69.96
2018-11-13T07:15:04.240Z,69.87
2018-11-13T07:16:04.220Z,70.44
2018-11-13T07:17:04.200Z,69.87
2018-11-13T07:18:04.181Z,70.25
2018-11-13T07:19:04.165Z,70.72
2018-11-13T07:20:04.413Z,70.15
2018-11-13T07:21:04.397Z,69.68
2018-11-13T07:22:04.379Z,69.48
2018-11-13T07:23:04.369Z,69.87
2018-11-13T07:24:04.346Z,69.96
2018-11-13T07:25:04.059Z,69.58
2018-11-13T07:26:04.308Z,70.06
2018-11-13T07:27:04.467Z,70.72
2018-11-13T07:28:04.497Z,70.82
2018-11-13T07:29:03.996Z,71.48
2018-11-13T07:30:03.977Z,71.96
2018-11-13T07:31:04.319Z,72.06
2018-11-13T07:32:04.259Z,72.53
2018-11-13T07:33:04.197Z,72.92
2018-11-13T07:34:03.952Z,74.16
2018-11-13T07:35:03.889Z,73.96
2018-11-13T07:36:03.870Z,74.63
2018-11-13T07:37:03.853Z,75.4
2018-11-13T07:38:03.839Z,75.59
2018-11-13T07:39:04.085Z,76.44
2018-11-13T07:40:04.076Z,76.16
2018-11-13T07:41:04.227Z,76.39
2018-11-13T07:42:04.050Z,76.1
2018-11-13T07:43:03.758Z,76.2
2018-11-13T07:44:03.737Z,75.72
2018-11-13T07:45:03.986Z,77.25
2018-11-13T07:46:03.980Z,77.44
2018-11-13T07:47:03.739Z,77.53
2018-11-13T07:48:04.175Z,77.62
2018-11-13T07:49:03.658Z,77.44
2018-11-13T07:50:03.897Z,79.63
2018-11-13T07:51:03.669Z,79.25
2018-11-13T07:52:03.600Z,78.77
2018-11-13T07:53:03.846Z,78.77
2018-11-13T07:54:03.940Z,78.96
2018-11-13T07:55:03.548Z,80.01
2018-11-13T07:56:03.531Z,80.01
2018-11-13T07:57:03.817Z,79.82
2018-11-13T07:58:03.499Z,80.96
2018-11-13T07:59:03.487Z,80.39
2018-11-13T08:00:03.736Z,80.39
2018-11-13T08:01:03.479Z,80.87
2018-11-13T08:02:03.694Z,83.35
2018-11-13T08:03:03.412Z,83.54
2018-11-13T08:04:03.667Z,84.3
2018-11-13T08:05:03.649Z,84.78
2018-11-13T08:06:03.426Z,84.82
2018-11-13T08:07:03.347Z,84.34
2018-11-13T08:08:03.595Z,84.82
2018-11-13T08:09:03.583Z,85.3
2018-11-13T08:10:03.303Z,87.3
2018-11-13T08:11:03.281Z,86.73
2018-11-13T08:12:03.529Z,87.21
2018-11-13T08:13:03.775Z,88.16
2018-11-13T08:14:03.496Z,86.73
2018-11-13T08:15:03.488Z,87.49
2018-11-13T08:16:03.472Z,88.35
2018-11-13T08:17:03.448Z,88.16
2018-11-13T08:18:03.169Z,87.21
2018-11-13T08:19:03.415Z,86.92
2018-11-13T08:20:03.133Z,89.02
2018-11-13T08:21:03.434Z,89.31
2018-11-13T08:22:03.157Z,89.4
2018-11-13T08:23:03.371Z,89.02
2018-11-13T08:24:03.066Z,87.87
2018-11-13T08:25:03.349Z,88.16
2018-11-13T08:26:03.035Z,87.78
2018-11-13T08:27:03.498Z,87.4
2018-11-13T08:28:03.531Z,87.97
2018-11-13T08:29:03.094Z,89.21
2018-11-13T08:30:02.966Z,89.12
2018-11-13T08:31:03.218Z,89.21
2018-11-13T08:32:03.204Z,87.78
2018-11-13T08:33:03.196Z,88.16
2018-11-13T08:34:03.164Z,87.02
2018-11-13T08:35:03.036Z,89.21
2018-11-13T08:36:02.868Z,89.4
2018-11-13T08:37:03.122Z,89.59
2018-11-13T08:38:02.834Z,89.4
2018-11-13T08:39:03.081Z,88.45
2018-11-13T08:40:02.800Z,89.5
2018-11-13T08:41:02.788Z,89.78
2018-11-13T08:42:03.035Z,88.92
2018-11-13T08:43:02.762Z,90.26
2018-11-13T08:44:02.790Z,89.59
2018-11-13T08:45:02.721Z,89.59
2018-11-13T08:46:02.976Z,90.45
2018-11-13T08:47:02.947Z,89.59
2018-11-13T08:48:02.941Z,89.97
2018-11-13T08:49:02.655Z,90.07
2018-11-13T08:50:02.903Z,90.55
2018-11-13T08:51:02.886Z,90.55
2018-11-13T08:52:02.865Z,89.88
2018-11-13T08:53:02.593Z,92.26
2018-11-13T08:54:03.036Z,93.07
2018-11-13T08:55:02.876Z,92.88
2018-11-13T08:56:02.803Z,93.36
2018-11-13T08:57:02.791Z,93.26
2018-11-13T08:58:02.510Z,95.36
2018-11-13T08:59:03.057Z,94.79
2018-11-13T09:00:02.752Z,94.22
2018-11-13T09:01:02.727Z,93.65
2018-11-13T09:02:02.719Z,93.26
2018-11-13T09:03:02.699Z,93.46
2018-11-13T09:04:02.411Z,93.84
2018-11-13T09:05:02.521Z,93.36
2018-11-13T09:06:02.648Z,92.41
2018-11-13T09:07:02.634Z,93.84
2018-11-13T09:08:02.361Z,93.26
2018-11-13T09:09:02.600Z,93.26
2018-11-13T09:10:02.318Z,92.41
2018-11-13T09:11:02.299Z,93.26
2018-11-13T09:12:02.983Z,92.79
2018-11-13T09:13:02.268Z,92.79
2018-11-13T09:14:02.252Z,93.12
2018-11-13T09:15:02.508Z,93.36
2018-11-13T09:16:02.221Z,92.21
2018-11-13T09:17:02.527Z,93.46
2018-11-13T09:18:02.580Z,92.69
2018-11-13T09:19:02.705Z,92.12
2018-11-13T09:20:02.439Z,93.55
2018-11-13T09:21:02.139Z,92.41
2018-11-13T09:22:02.390Z,91.88
2018-11-13T09:23:02.109Z,91.93
2018-11-13T09:24:02.361Z,91.93
2018-11-13T09:25:02.338Z,91.36
2018-11-13T09:26:02.064Z,92.21
2018-11-13T09:27:02.043Z,91.41
2018-11-13T09:28:02.297Z,89.88
2018-11-13T09:29:02.031Z,91.78
2018-11-13T09:30:02.449Z,91.12
2018-11-13T09:31:02.155Z,90.73
2018-11-13T09:32:02.235Z,92.07
2018-11-13T09:33:02.287Z,93.41
2018-11-13T09:34:01.935Z,92.07
2018-11-13T09:35:02.196Z,91.31
2018-11-13T09:36:01.902Z,92.46
2018-11-13T09:37:02.157Z,93.6
2018-11-13T09:38:02.133Z,93.41
2018-11-13T09:39:02.118Z,95.51
2018-11-13T09:40:01.836Z,94.84
2018-11-13T09:41:02.084Z,94.03
2018-11-13T09:42:02.072Z,93.46
2018-11-13T09:43:01.788Z,92.6
2018-11-13T09:44:02.037Z,94.51
2018-11-13T09:45:01.861Z,93.07
2018-11-13T09:46:02.214Z,92.69
2018-11-13T09:47:01.990Z,94.79
2018-11-13T09:48:01.973Z,94.41
2018-11-13T09:49:01.955Z,94.12
2018-11-13T09:50:01.947Z,95.75
2018-11-13T09:51:01.924Z,96.98
2018-11-13T09:52:01.905Z,97.18
2018-11-13T09:53:01.917Z,97.18
2018-11-13T09:54:01.614Z,96.7
2018-11-13T09:55:01.597Z,97.56
2018-11-13T09:56:01.845Z,96.32
2018-11-13T09:57:01.563Z,97.47
2018-11-13T09:58:01.551Z,97.18
2018-11-13T09:59:01.597Z,98.03
2018-11-13T10:00:02.070Z,98.52
2018-11-13T10:01:01.753Z,98.52
2018-11-13T10:02:02.985Z,96.8
2018-11-13T10:03:03.147Z,97.08
2018-11-13T10:04:02.048Z,97.18
2018-11-13T10:05:02.387Z,97.18
2018-11-13T10:06:01.899Z,98.42
2018-11-13T10:07:01.457Z,98.32
2018-11-13T10:08:01.706Z,98.71
2018-11-13T10:09:01.380Z,98.71
2018-11-13T10:10:01.390Z,98.99
2018-11-13T10:11:01.346Z,98.52
2018-11-13T10:12:01.640Z,98.23
2018-11-13T10:13:01.314Z,99.28
2018-11-13T10:14:01.298Z,99.95
2018-11-13T10:15:01.551Z,99.99
2018-11-13T10:16:01.538Z,99.99
2018-11-13T10:17:01.528Z,99.99
2018-11-13T10:18:02.055Z,99.99
2018-11-13T10:19:01.222Z,99.99
2018-11-13T10:20:01.473Z,99.99
2018-11-13T10:21:01.194Z,99.99
2018-11-13T10:22:01.437Z,99.99
2018-11-13T10:23:01.453Z,99.99
2018-11-13T10:24:01.416Z,99.99
2018-11-13T10:25:01.140Z,99.99
2018-11-13T10:26:01.124Z,99.99
2018-11-13T10:27:01.400Z,99.99
2018-11-13T10:28:01.356Z,99.99
2018-11-13T10:29:01.357Z,99.99
2018-11-13T10:30:01.593Z,99.99
2018-11-13T10:31:01.314Z,99.99
2018-11-13T10:32:01.038Z,99.99
2018-11-13T10:33:01.026Z,99.99
2018-11-13T10:34:01.292Z,99.99
2018-11-13T10:35:01.262Z,99.99
2018-11-13T10:36:00.986Z,99.99
2018-11-13T10:37:00.972Z,99.99
2018-11-13T10:38:00.961Z,99.99
2018-11-13T10:39:00.948Z,99.99
2018-11-13T10:40:01.341Z,99.99
2018-11-13T10:41:00.948Z,99.99
2018-11-13T10:42:01.177Z,99.99
2018-11-13T10:43:01.168Z,99.99
2018-11-13T10:44:01.144Z,99.99
2018-11-13T10:45:01.139Z,99.99
2018-11-13T10:46:01.127Z,99.99
2018-11-13T10:47:00.877Z,99.99
2018-11-13T10:48:01.157Z,99.99
2018-11-13T10:49:00.845Z,99.99
2018-11-13T10:50:01.099Z,99.99
2018-11-13T10:51:00.795Z,99.99
2018-11-13T10:52:01.047Z,99.99
2018-11-13T10:53:00.770Z,99.99
2018-11-13T10:54:01.022Z,99.99
2018-11-13T10:55:01.012Z,99.99
2018-11-13T10:56:00.999Z,99.99
2018-11-13T10:57:00.722Z,99.99
2018-11-13T10:58:00.975Z,99.99
2018-11-13T10:59:00.956Z,99.99
2018-11-13T11:00:00.947Z,99.99
2018-11-13T11:01:00.940Z,99.99
2018-11-13T11:02:00.651Z,99.99
2018-11-13T11:03:00.754Z,99.99
2018-11-13T11:04:00.630Z,99.99
2018-11-13T11:05:00.608Z,99.99
2018-11-13T11:06:00.862Z,99.99
2018-11-13T11:07:00.846Z,99.99
2018-11-13T11:08:00.840Z,99.99
2018-11-13T11:09:00.821Z,99.99
2018-11-13T11:10:00.542Z,99.99
2018-11-13T11:11:00.528Z,99.99
2018-11-13T11:12:00.515Z,99.99
2018-11-13T11:13:00.593Z,99.99
2018-11-13T11:14:01.556Z,97.89
2018-11-13T11:15:00.739Z,92.83
2018-11-13T11:16:00.722Z,88.01
2018-11-13T11:17:00.450Z,90.02
2018-11-13T11:18:00.447Z,86.87
2018-11-13T11:19:00.740Z,87.97
2018-11-13T11:20:00.663Z,88.16
2018-11-13T11:21:00.663Z,84.63
2018-11-13T11:22:00.643Z,84.53
2018-11-13T11:23:00.425Z,80.24
2018-11-13T11:24:00.367Z,82.24
2018-11-13T11:25:00.645Z,82.91
2018-11-13T11:26:00.624Z,84.53
2018-11-13T11:27:00.288Z,84.53
2018-11-13T11:28:00.700Z,85.39
2018-11-13T11:29:00.257Z,82.91
2018-11-13T11:30:00.242Z,84.25
2018-11-13T11:31:00.641Z,87.21
2018-11-13T11:32:00.471Z,88.16
2018-11-13T11:33:00.190Z,89.12
2018-11-13T11:34:00.188Z,89.5
2018-11-13T11:35:00.157Z,88.83
2018-11-13T11:36:00.147Z,83.39
2018-11-13T11:37:00.413Z,83.01
2018-11-13T11:38:00.110Z,79.19
2018-11-13T11:39:00.247Z,75.37
2018-11-13T11:40:00.359Z,69.65
2018-11-13T11:41:00.351Z,65.13
2018-11-13T11:42:00.312Z,64.75
2018-11-13T11:43:00.293Z,62.94
2018-11-13T11:44:00.284Z,63.6
2018-11-13T11:45:00.263Z,66.47
2018-11-13T11:45:59.982Z,64.56
2018-11-13T11:47:00.237Z,64.18
2018-11-13T11:48:00.212Z,61.13
2018-11-13T11:48:59.930Z,58.84
2018-11-13T11:50:00.172Z,61.04
2018-11-13T11:51:00.169Z,58.65
2018-11-13T11:52:00.143Z,58.46
2018-11-13T11:53:00.129Z,62.65
2018-11-13T11:53:59.970Z,59.51
2018-11-13T11:55:00.093Z,55.98
2018-11-13T11:55:59.810Z,54.36
2018-11-13T11:57:00.091Z,51.5
2018-11-13T11:57:59.773Z,48.07
2018-11-13T11:59:00.026Z,45.2
2018-11-13T12:00:00.004Z,43.37
2018-11-13T12:00:59.996Z,41.56
2018-11-13T12:01:59.991Z,40.12
2018-11-13T12:02:59.960Z,38.98
2018-11-13T12:03:59.672Z,37.93
2018-11-13T12:04:59.921Z,37.46
2018-11-13T12:05:59.914Z,37.55
2018-11-13T12:06:59.892Z,37.27
2018-11-13T12:07:59.892Z,36.41
2018-11-13T12:08:59.594Z,35.84
2018-11-13T12:09:59.887Z,35.55
2018-11-13T12:10:59.835Z,35.55
2018-11-13T12:11:59.814Z,35.08
2018-11-13T12:12:59.783Z,34.88
2018-11-13T12:13:59.505Z,34.98
2018-11-13T12:14:59.514Z,35.08
2018-11-13T12:15:59.745Z,35.46
2018-11-13T12:16:59.717Z,35.46
2018-11-13T12:17:59.775Z,34.88
2018-11-13T12:18:59.816Z,34.61
2018-11-13T12:19:59.668Z,37.49
2018-11-13T12:20:59.391Z,38.93
2018-11-13T12:21:59.630Z,39.98
2018-11-13T12:22:59.663Z,46.56
2018-11-13T12:23:59.335Z,48.18
2018-11-13T12:24:59.582Z,48.66
2018-11-13T12:25:59.843Z,48.16
2018-11-13T12:26:59.597Z,53.62
2018-11-13T12:27:59.536Z,61.19
2018-11-13T12:28:59.517Z,65.42
2018-11-13T12:29:59.501Z,60.27
2018-11-13T12:30:59.491Z,59.91
2018-11-13T12:31:59.480Z,70.17
2018-11-13T12:32:59.457Z,77.34
2018-11-13T12:33:59.187Z,90.25
2018-11-13T12:34:59.217Z,94.55
2018-11-13T12:35:59.154Z,94.84
2018-11-13T12:36:59.153Z,86.04
2018-11-13T12:37:59.396Z,97.56
2018-11-13T12:38:59.120Z,98.33
2018-11-13T12:39:59.361Z,94.41
2018-11-13T12:40:59.651Z,86.04
2018-11-13T12:41:59.341Z,95.89
2018-11-13T12:42:59.339Z,95.94
2018-11-13T12:43:59.053Z,92.35
2018-11-13T12:44:59.301Z,89.77
2018-11-13T12:45:59.292Z,99.57
2018-11-13T12:46:59.040Z,94.74
2018-11-13T12:47:59.264Z,92.35
2018-11-13T12:48:59.432Z,91.25
2018-11-13T12:49:58.977Z,94.41
2018-11-13T12:50:58.971Z,94.98
2018-11-13T12:51:58.954Z,94.84
2018-11-13T12:52:59.299Z,94.31
2018-11-13T12:54:01.066Z,94.27
2018-11-13T12:54:59.179Z,92.93